Coal Springs, South Dakota
Current Conditions -  °F | °C
As of 4:53 PM on Saturday 27 Dec 2014 (Local Time) from KHEI Reporting Station
Overcast Overcast  
Wind Chill: 13°   Ceiling: 8500
Heat Index: 21°   Visibility: 10mi
Dew Point: 14°   Wind: 6mph
Humidity: 74%   Direction: 260°W
Pressure: 30.01"   Gusts: NA
Location:  45.2919°N, 102.298°W
Report Text: KHEI 272353Z AUTO 26005KT 10SM OVC085 M06/M10 A3001 RMK AO2 SLP201 T10611100 11011 21061 51009
Loading
Personal Weather Stations






























Interactive Weather Map New forecast layout! Learn more

10-Day Weather Forecast

Advertisements
Track Severe Weather on mobile